TimeCST,TemperatureF,Dew PointF,Humidity,Sea Level PressureIn,VisibilityMPH,Wind Direction,Wind SpeedMPH,Gust SpeedMPH,PrecipitationIn,Events,Conditions,WindDirDegrees,DateUTC
12:53 AM,43.0,30.0,60,29.74,10.0,South,9.2,-,N/A,,Partly Cloudy,170,2011-11-19 06:53:00
1:53 AM,43.0,28.9,58,29.73,10.0,South,8.1,-,N/A,,Scattered Clouds,170,2011-11-19 07:53:00
2:53 AM,44.1,30.0,58,29.72,10.0,SSE,9.2,-,N/A,,Clear,160,2011-11-19 08:53:00
3:53 AM,44.1,30.0,58,29.70,10.0,SSE,9.2,-,N/A,,Mostly Cloudy,150,2011-11-19 09:53:00
5:32 AM,46.4,32.0,57,29.67,10.0,SE,6.9,-,N/A,,Overcast,140,2011-11-19 11:32:00
6:53 AM,48.9,35.1,59,29.66,10.0,SE,10.4,-,N/A,,Overcast,140,2011-11-19 12:53:00
7:53 AM,50.0,36.0,59,29.64,10.0,SE,11.5,-,N/A,,Overcast,140,2011-11-19 13:53:00
8:30 AM,50.0,37.4,62,29.62,10.0,SE,10.4,-,N/A,,Overcast,140,2011-11-19 14:30:00
8:53 AM,50.0,37.0,61,29.61,10.0,SE,15.0,-,N/A,,Overcast,140,2011-11-19 14:53:00
9:15 AM,50.0,37.4,62,29.59,10.0,SSE,17.3,23.0,N/A,,Overcast,150,2011-11-19 15:15:00
9:44 AM,51.8,37.4,58,29.61,10.0,SSE,11.5,19.6,N/A,,Overcast,160,2011-11-19 15:44:00
9:53 AM,51.1,39.0,63,29.62,10.0,SSE,15.0,20.7,N/A,,Overcast,150,2011-11-19 15:53:00
10:53 AM,53.1,41.0,64,29.61,10.0,SSE,11.5,-,N/A,,Overcast,150,2011-11-19 16:53:00
11:19 AM,53.6,41.0,62,29.59,10.0,SSE,8.1,-,N/A,,Overcast,150,2011-11-19 17:19:00
11:53 AM,55.9,43.0,62,29.57,10.0,SSE,8.1,-,N/A,,Overcast,150,2011-11-19 17:53:00
12:53 PM,59.0,46.9,64,29.57,10.0,SSW,6.9,-,N/A,,Overcast,200,2011-11-19 18:53:00
1:24 PM,62.6,46.4,55,29.57,10.0,WSW,18.4,24.2,N/A,,Overcast,240,2011-11-19 19:24:00
1:53 PM,63.0,46.9,56,29.58,10.0,WSW,19.6,26.5,N/A,,Overcast,240,2011-11-19 19:53:00
3:53 PM,52.0,41.0,66,29.72,10.0,WNW,21.9,28.8,N/A,,Partly Cloudy,290,2011-11-19 21:53:00
4:51 PM,42.8,35.6,76,29.78,10.0,WNW,23.0,29.9,N/A,,Mostly Cloudy,300,2011-11-19 22:51:00
4:53 PM,42.1,35.1,76,29.80,10.0,WNW,23.0,29.9,N/A,,Mostly Cloudy,300,2011-11-19 22:53:00
5:46 PM,37.4,32.0,81,29.85,10.0,NW,19.6,31.1,N/A,,Overcast,320,2011-11-19 23:46:00
5:53 PM,37.0,30.9,79,29.88,10.0,NNW,12.7,26.5,N/A,,Overcast,330,2011-11-19 23:53:00
7:53 PM,30.9,26.1,82,29.99,10.0,NW,23.0,29.9,N/A,,Overcast,320,2011-11-20 01:53:00
8:53 PM,30.9,26.1,82,30.04,10.0,NW,16.1,-,N/A,,Overcast,320,2011-11-20 02:53:00
9:53 PM,30.0,25.0,82,30.08,10.0,NW,15.0,23.0,N/A,,Overcast,320,2011-11-20 03:53:00
10:53 PM,28.0,23.0,81,30.12,10.0,NNW,15.0,20.7,N/A,,Overcast,330,2011-11-20 04:53:00